Погода Пильхувна неделю

Подкарпатское воеводство, Польша

16 - 22 июля
  • 16июля
    Сегодня
    +20°
    +33°
    Небольшая облачность
    ВремяПогодаТемператураВлажностьДавлениеВетер, м/сВероятность осадков
    02:00Ясно и безоблачно+21°C93 %747 мм2.3 м/с2 %
    05:00Ясно и безоблачно+20°C94 %747 мм2.1 м/с2 %
    08:00Ясно и безоблачно+25°C81 %747 мм3.5 м/с2 %
    11:00Ясно и безоблачно+30°C66 %746 мм3.2 м/с2 %
    14:00Небольшая облачность+33°C61 %746 мм2.8 м/с15 %
    17:00Облачно с прояснениями+31°C57 %746 мм3.6 м/с35 %
    20:00Небольшая облачность, возможен дождь с грозой+28°C73 %745 мм1.5 м/с27 %
    23:00Облачно с прояснениями+24°C94 %747 мм2.3 м/с46 %
  • 17июля
    Среда
    +19°
    +29°
    Облачно с прояснениями
    ВремяПогодаТемператураВлажностьДавлениеВетер, м/сВероятность осадков
    02:00Ясно и безоблачно+22°C95 %748 мм2.5 м/с4 %
    05:00Практически безоблачно+21°C96 %749 мм1.9 м/с1 %
    08:00Ясно и безоблачно+23°C85 %750 мм1.5 м/с1 %
    11:00Облачно с прояснениями+26°C65 %750 мм0.8 м/с7 %
    14:00Облачно с прояснениями+28°C52 %750 мм1.8 м/с11 %
    17:00Небольшая облачность+29°C49 %749 мм1.5 м/с20 %
    20:00Облачно с прояснениями, небольшой дождь+26°C76 %750 мм1.5 м/с45 %
    23:00Небольшая облачность+22°C87 %750 мм0.9 м/с34 %
  • 18июля
    Четверг
    +16°
    +28°
    Ясно и безоблачно
    ВремяПогодаТемператураВлажностьДавлениеВетер, м/сВероятность осадков
    02:00Небольшая облачность+20°C86 %751 мм2.5 м/с32 %
    05:00Облачно с прояснениями+19°C94 %751 мм2.9 м/с31 %
    08:00Ясно и безоблачно+22°C78 %752 мм1.4 м/с19 %
    11:00Ясно и безоблачно+25°C58 %752 мм3.3 м/с8 %
    14:00Ясно и безоблачно+27°C48 %752 мм4.1 м/с6 %
    17:00Ясно и безоблачно+27°C46 %751 мм3.7 м/с2 %
    20:00Ясно и безоблачно+24°C62 %751 мм1.8 м/с2 %
    23:00Ясно и безоблачно+20°C73 %752 мм1.9 м/с2 %
  • 19июля
    Пятница
    +14°
    +27°
    Облачно с прояснениями
    ВремяПогодаТемператураВлажностьДавлениеВетер, м/сВероятность осадков
    02:00Ясно и безоблачно+18°C83 %752 мм1.7 м/с2 %
    05:00Практически безоблачно+17°C86 %752 мм1.8 м/с2 %
    08:00Облачно с прояснениями+21°C71 %752 мм1.8 м/с2 %
    11:00Небольшая облачность+25°C53 %752 мм2.6 м/с2 %
    14:00Облачно с прояснениями+27°C49 %751 мм3.1 м/с2 %
    17:00Небольшая облачность+26°C47 %750 мм3.9 м/с2 %
    20:00Практически безоблачно+24°C63 %750 мм1.9 м/с2 %
    23:00Ясно и безоблачно+19°C77 %750 мм2.1 м/с2 %
  • 20июля
    Суббота
    +14°
    +27°
    Ясно и безоблачно
    ВремяПогодаТемператураВлажностьДавлениеВетер, м/сВероятность осадков
    02:00Ясно и безоблачно+17°C84 %750 мм1.8 м/с2 %
    05:00Практически безоблачно+15°C88 %749 мм1.6 м/с2 %
    08:00Ясно и безоблачно+20°C69 %749 мм1.5 м/с2 %
    11:00Практически безоблачно+24°C49 %749 мм2.9 м/с2 %
    14:00Ясно и безоблачно+26°C44 %749 мм2.4 м/с2 %
    17:00Ясно и безоблачно+26°C43 %748 мм2.3 м/с2 %
    20:00Ясно и безоблачно+23°C66 %747 мм1.9 м/с2 %
    23:00Практически безоблачно+18°C81 %747 мм2.1 м/с2 %
Мы используем cookies
Соглашаюсь